Flight Track Log - Related Links

Times and Time Zones

All times are in EDT time to prevent confusion due to time zone crossing. See the AAL832 flight status page for this flight to view local times or setup timezone preferences in your user account.

Time Position Orientation Groundspeed Altitude Reporting Facility
EDT Latitude Longitude Course Direction KTS MPH feet Rate Location/Type
Wed 05:23:47 PM 41.9620 -87.8890 340° North 140 161  Level FlightAware ADS-B
Wed 05:24:14 PM 41.9460 -87.9090 223° Southwest 176 203 1,300 3,081 Climbing FlightAware ADS-B
Wed 05:24:24 PM 41.9380 -87.9150 209° Southwest 175 201 1,900 2,526 Climbing FlightAware ADS-B
Wed 05:24:33 PM 41.9320 -87.9160 187° South 181 208 2,100 1,765 Climbing FlightAware ADS-B
Wed 05:24:41 PM 41.9250 -87.9160 180° South 192 221 2,400 2,057 Climbing FlightAware ADS-B
Wed 05:25:08 PM 41.8980 -87.9150 178° South 224 258 3,300 2,000 Climbing FlightAware ADS-B
Wed 05:25:29 PM 41.8750 -87.9130 176° South 253 291 4,000 2,429 Climbing FlightAware ADS-B
Wed 05:25:50 PM 41.8490 -87.9110 177° South 269 310 5,000 3,091 Climbing FlightAware ADS-B
Wed 05:26:02 PM 41.8340 -87.9090 174° South 274 315 5,700 3,563 Climbing FlightAware ADS-B
Wed 05:26:22 PM 41.8080 -87.9060 175° South 277 319 6,900 3,300 Climbing FlightAware ADS-B
Wed 05:26:42 PM 41.7830 -87.8990 168° South 286 329 7,900 3,405 Climbing FlightAware ADS-B
Wed 05:26:59 PM 41.7620 -87.8890 160° South 288 331 9,000 3,405 Climbing FlightAware ADS-B
Wed 05:27:19 PM 41.7370 -87.8770 160° South 296 341 10,000 2,945 Climbing FlightAware ADS-B
Wed 05:27:54 PM 41.6900 -87.8540 160° South 309 356 11,700 2,620 Climbing FlightAware ADS-B
Wed 05:28:30 PM 41.6380 -87.8300 161° South 338 389 13,100 2,174 Climbing FlightAware ADS-B
Wed 05:29:03 PM 41.5890 -87.8060 160° South 364 419 14,200 2,657 Climbing FlightAware ADS-B
Wed 05:29:40 PM 41.5280 -87.7770 160° South 371 427 16,200 2,829 Climbing FlightAware ADS-B
Wed 05:30:13 PM 41.4750 -87.7510 160° South 380 437 17,500 2,400 Climbing FlightAware ADS-B
Wed 05:30:50 PM 41.4120 -87.7280 165° South 392 451 19,000 2,301 Climbing FlightAware ADS-B
Wed 05:31:26 PM 41.3440 -87.7250 178° South 407 468 20,300 2,197 Climbing FlightAware ADS-B
Wed 05:32:01 PM 41.2780 -87.7250 180° South 416 479 21,600 2,182 Climbing FlightAware ADS-B
Wed 05:32:32 PM 41.2170 -87.7260 181° South 424 488 22,700 1,941 Climbing FlightAware ADS-B
Wed 05:33:09 PM 41.1440 -87.7180 175° South 438 504 23,800 1,808 Climbing FlightAware ADS-B
Wed 05:33:45 PM 41.0720 -87.7080 174° South 446 513 24,900 1,800 Climbing FlightAware ADS-B
Wed 05:34:19 PM 41.0050 -87.6990 174° South 452 520 25,900 1,714 Climbing FlightAware ADS-B
Wed 05:34:55 PM 40.9240 -87.6880 174° South 463 533 26,900 1,521 Climbing FlightAware ADS-B
Wed 05:35:30 PM 40.8510 -87.6780 174° South 472 543 27,700 917 Climbing FlightAware ADS-B
Wed 05:36:07 PM 40.7710 -87.6680 175° South 478 550 28,000 783 Climbing FlightAware ADS-B
Wed 05:36:39 PM 40.6970 -87.6480 168° South 483 556 28,600 882 Climbing FlightAware ADS-B
Wed 05:37:15 PM 40.6200 -87.6090 159° South 491 565 29,000 971 Climbing FlightAware ADS-B
Wed 05:37:47 PM 40.5530 -87.5730 158° South 497 572 29,700 1,099 Climbing FlightAware ADS-B
Wed 05:38:26 PM 40.4740 -87.5310 158° South 508 585 30,300 1,000 Climbing FlightAware ADS-B
Wed 05:38:59 PM 40.3960 -87.4900 158° South 517 595 30,900 1,164 Climbing FlightAware ADS-B
Wed 05:39:33 PM 40.3210 -87.4500 158° South 520 598 31,600 1,583 Climbing FlightAware ADS-B
Wed 05:40:11 PM 40.2370 -87.4060 158° South 516 594 32,800 1,886 Climbing FlightAware ADS-B
Wed 05:40:43 PM 40.1680 -87.3700 158° South 508 585 33,800 1,739 Climbing FlightAware ADS-B
Wed 05:41:20 PM 40.0880 -87.3280 158° South 502 578 34,800 1,575 Climbing FlightAware ADS-B
Wed 05:42:03 PM 39.9950 -87.2790 158° South 495 570 35,900 1,403 Climbing FlightAware ADS-B
Wed 05:42:37 PM 39.9240 -87.2420 158° South 490 564 36,600 1,324 Climbing FlightAware ADS-B
Wed 05:43:11 PM 39.8490 -87.2030 158° South 487 560 37,400 1,371 Climbing FlightAware ADS-B
Wed 05:43:47 PM 39.7780 -87.1670 159° South 480 552 38,200 1,286 Climbing FlightAware ADS-B
Wed 05:44:21 PM 39.7080 -87.1310 158° South 471 542 38,900 667 Climbing FlightAware ADS-B
Wed 05:44:59 PM 39.6320 -87.0910 158° South 477 549 39,000 86 Climbing FlightAware ADS-B
Wed 05:45:31 PM 39.5650 -87.0570 159° South 480 552 39,000  Level FlightAware ADS-B
Wed 05:46:07 PM 39.4940 -87.0210 159° South 479 551 39,000  Level FlightAware ADS-B
Wed 05:46:43 PM 39.4190 -86.9830 159° South 478 550 39,000  Level FlightAware ADS-B
Wed 05:47:15 PM 39.3530 -86.9490 158° South 476 548 39,000  Level FlightAware ADS-B
Wed 05:47:51 PM 39.2780 -86.9100 158° South 475 547 39,000  Level FlightAware ADS-B
Wed 05:48:28 PM 39.2050 -86.8730 159° South 474 545 39,000  Level FlightAware ADS-B
Wed 05:49:03 PM 39.1320 -86.8290 155° Southeast 479 551 39,000  Level FlightAware ADS-B
Wed 05:49:37 PM 39.0670 -86.7850 152° Southeast 478 550 39,000  Level FlightAware ADS-B
Wed 05:50:13 PM 38.9950 -86.7360 152° Southeast 477 549 39,000  Level FlightAware ADS-B
Wed 05:50:49 PM 38.9250 -86.6890 152° Southeast 475 547 39,000  Level FlightAware ADS-B
Wed 05:51:24 PM 38.8580 -86.6430 152° Southeast 475 547 39,000  Level FlightAware ADS-B
Wed 05:51:57 PM 38.7930 -86.6000 153° Southeast 475 547 39,000  Level FlightAware ADS-B
Wed 05:52:33 PM 38.7210 -86.5520 153° Southeast 475 547 39,000  Level FlightAware ADS-B
Wed 05:53:07 PM 38.6560 -86.5080 152° Southeast 475 547 39,000  Level FlightAware ADS-B
Wed 05:53:42 PM 38.5850 -86.4610 153° Southeast 475 547 39,000  Level FlightAware ADS-B
Wed 05:54:18 PM 38.5150 -86.4140 152° Southeast 475 547 39,000  Level FlightAware ADS-B
Wed 05:54:54 PM 38.4440 -86.3670 153° Southeast 474 545 39,000  Level FlightAware ADS-B
Wed 05:55:26 PM 38.3840 -86.3260 152° Southeast 472 543 39,000  Level FlightAware ADS-B
Wed 05:56:04 PM 38.3090 -86.2770 153° Southeast 471 542 39,000  Level FlightAware ADS-B
Wed 05:56:40 PM 38.2400 -86.2310 152° Southeast 470 541 39,000  Level FlightAware ADS-B
Wed 05:57:11 PM 38.1810 -86.1920 153° Southeast 470 541 39,000  Level FlightAware ADS-B
Wed 05:57:48 PM 38.1080 -86.1440 153° Southeast 469 540 39,000  Level FlightAware ADS-B
Wed 05:58:24 PM 38.0390 -86.0990 153° Southeast 468 539 39,000  Level FlightAware ADS-B
Wed 05:58:56 PM 37.9790 -86.0590 152° Southeast 468 539 39,000  Level FlightAware ADS-B
Wed 05:59:33 PM 37.9090 -86.0140 153° Southeast 468 539 39,000  Level FlightAware ADS-B
Wed 06:00:10 PM 37.8350 -85.9650 152° Southeast 466 536 39,000  Level FlightAware ADS-B
Wed 06:00:44 PM 37.7720 -85.9240 153° Southeast 466 536 39,000  Level FlightAware ADS-B
Wed 06:01:18 PM 37.7070 -85.8820 153° Southeast 465 535 39,000  Level FlightAware ADS-B
Wed 06:01:54 PM 37.6380 -85.8370 153° Southeast 464 534 39,000  Level FlightAware ADS-B
Wed 06:02:01 PM 37.6227 -85.8269 152° Southeast 465 535 39,000  Level FlightAware ADS-B
Wed 06:02:32 PM 37.5641 -85.7890 153° Southeast 465 535 39,000  Level FlightAware ADS-B
Wed 06:03:11 PM 37.4899 -85.7409 153° Southeast 463 533 39,000  Level FlightAware ADS-B
Wed 06:03:42 PM 37.4316 -85.7034 153° Southeast 461 531 39,000  Level FlightAware ADS-B
Wed 06:04:21 PM 37.3575 -85.6557 153° Southeast 460 529 39,000  Level FlightAware ADS-B
Wed 06:04:51 PM 37.3008 -85.6192 153° Southeast 460 529 39,000  Level FlightAware ADS-B
Wed 06:05:22 PM 37.2409 -85.5807 153° Southeast 460 529 39,000  Level FlightAware ADS-B
Wed 06:05:54 PM 37.1818 -85.5429 153° Southeast 459 528 39,000  Level FlightAware ADS-B
Wed 06:06:39 PM 37.0957 -85.4882 153° Southeast 460 529 39,000  Level FlightAware ADS-B
Wed 06:07:10 PM 37.0367 -85.4504 153° Southeast 462 532 39,000  Level FlightAware ADS-B
Wed 06:07:43 PM 36.9740 -85.4102 153° Southeast 462 532 39,000  Level FlightAware ADS-B
Wed 06:08:28 PM 36.8890 -85.3563 153° Southeast 462 532 39,000  Level FlightAware ADS-B
Wed 06:09:04 PM 36.8206 -85.3127 153° Southeast 463 533 39,000  Level FlightAware ADS-B
Wed 06:09:34 PM 36.7615 -85.2751 153° Southeast 469 540 39,000  Level FlightAware ADS-B
Wed 06:10:07 PM 36.6969 -85.2343 153° Southeast 471 542 39,000  Level FlightAware ADS-B
Wed 06:10:33 PM 36.6483 -85.2038 153° Southeast 470 541 39,000  Level FlightAware ADS-B
Wed 06:11:07 PM 36.5800 -85.1740 161° South 461 531 39,000  Level FlightAware ADS-B
Wed 06:11:35 PM 36.5206 -85.1578 168° South 458 527 39,000  Level FlightAware ADS-B
Wed 06:12:07 PM 36.4540 -85.1407 168° South 457 526 39,000  Level FlightAware ADS-B
Wed 06:12:44 PM 36.3785 -85.1212 168° South 457 526 39,000  Level FlightAware ADS-B
Wed 06:13:14 PM 36.3157 -85.1050 168° South 455 524 39,000  Level FlightAware ADS-B
Wed 06:13:44 PM 36.2534 -85.0891 168° South 453 521 39,000  Level FlightAware ADS-B
Wed 06:14:15 PM 36.1918 -85.0733 168° South 451 519 39,000  Level FlightAware ADS-B
Wed 06:14:47 PM 36.1248 -85.0561 168° South 450 518 39,000  Level FlightAware ADS-B
Wed 06:15:18 PM 36.0628 -85.0402 168° South 450 518 39,000  Level FlightAware ADS-B
Wed 06:15:48 PM 36.0006 -85.0242 168° South 448 516 39,000  Level FlightAware ADS-B
Wed 06:16:19 PM 35.9387 -85.0084 168° South 448 516 39,000  Level FlightAware ADS-B
Wed 06:16:49 PM 35.8771 -84.9926 168° South 445 512 39,000  Level FlightAware ADS-B
Wed 06:17:20 PM 35.8163 -84.9770 168° South 444 511 39,000  Level FlightAware ADS-B
Wed 06:17:50 PM 35.7550 -84.9615 168° South 444 511 39,000  Level FlightAware ADS-B
Wed 06:18:20 PM 35.6939 -84.9461 168° South 443 510 39,000  Level FlightAware ADS-B
Wed 06:18:51 PM 35.6332 -84.9306 168° South 442 509 39,000  Level FlightAware ADS-B
Wed 06:19:27 PM 35.5606 -84.9124 168° South 441 507 39,000  Level FlightAware ADS-B
Wed 06:19:57 PM 35.4999 -84.8970 168° South 440 506 39,000  Level FlightAware ADS-B
Wed 06:20:28 PM 35.4383 -84.8813 168° South 440 506 39,000  Level FlightAware ADS-B
Wed 06:20:58 PM 35.3784 -84.8662 168° South 440 506 39,000  Level FlightAware ADS-B
Wed 06:21:29 PM 35.3169 -84.8507 168° South 440 506 39,000  Level FlightAware ADS-B
Wed 06:22:00 PM 35.2561 -84.8354 168° South 440 506 39,000  Level FlightAware ADS-B
Wed 06:22:31 PM 35.1944 -84.8199 168° South 440 506 39,000  Level FlightAware ADS-B
Wed 06:23:03 PM 35.1288 -84.8035 168° South 440 506 39,000  Level FlightAware ADS-B
Wed 06:23:34 PM 35.0685 -84.7885 168° South 440 506 39,000  Level FlightAware ADS-B
Wed 06:24:04 PM 35.0083 -84.7735 168° South 440 506 39,000  Level FlightAware ADS-B
Wed 06:24:34 PM 34.9483 -84.7585 168° South 440 506 39,000  Level FlightAware ADS-B
Wed 06:25:05 PM 34.8859 -84.7431 169° South 440 506 39,000  Level FlightAware ADS-B
Wed 06:25:38 PM 34.8210 -84.7270 168° South 440 506 39,000  Level FlightAware ADS-B
Wed 06:26:18 PM 34.7400 -84.7070 169° South 441 507 39,000  Level FlightAware ADS-B
Wed 06:26:50 PM 34.6770 -84.6910 168° South 441 507 39,000  Level FlightAware ADS-B
Wed 06:27:24 PM 34.6090 -84.6740 168° South 442 509 39,000  Level FlightAware ADS-B
Wed 06:27:56 PM 34.5450 -84.6590 169° South 444 511 39,000  Level FlightAware ADS-B
Wed 06:28:34 PM 34.4700 -84.6400 168° South 444 511 39,000  Level FlightAware ADS-B
Wed 06:29:10 PM 34.3950 -84.6220 169° South 445 512 39,000  Level FlightAware ADS-B
Wed 06:29:46 PM 34.3230 -84.6040 168° South 446 513 39,000  Level FlightAware ADS-B
Wed 06:30:22 PM 34.2490 -84.5860 169° South 447 514 39,000  Level FlightAware ADS-B
Wed 06:30:55 PM 34.1830 -84.5700 169° South 448 516 39,000  Level FlightAware ADS-B
Wed 06:31:32 PM 34.1070 -84.5510 168° South 449 517 39,000  Level FlightAware ADS-B
Wed 06:32:08 PM 34.0330 -84.5330 169° South 449 517 39,000  Level FlightAware ADS-B
Wed 06:32:38 PM 33.9710 -84.5180 169° South 450 518 39,000  Level FlightAware ADS-B
Wed 06:33:14 PM 33.9000 -84.5010 169° South 450 518 39,000  Level FlightAware ADS-B
Wed 06:33:50 PM 33.8250 -84.4830 169° South 450 518 39,000  Level FlightAware ADS-B
Wed 06:34:28 PM 33.7500 -84.4640 168° South 449 517 39,000  Level FlightAware ADS-B
Wed 06:34:40 PM 33.7227 -84.4578 169° South 449 517 39,000  Level FlightAware ADS-B
Wed 06:35:10 PM 33.6606 -84.4429 169° South 449 517 39,000  Level FlightAware ADS-B
Wed 06:36:10 PM 33.5420 -84.3990 163° South 454 522 39,000  Level FlightAware ADS-B
Wed 06:36:44 PM 33.4750 -84.3710 161° South 453 521 39,000  Level FlightAware ADS-B
Wed 06:37:04 PM 33.4349 -84.3540 161° South 448 516 39,000  Level FlightAware ADS-B
Wed 06:37:09 PM 33.4253 -84.3501 161° South 454 522 39,000  Level FlightAware ADS-B
Wed 06:37:45 PM 33.3528 -84.3197 161° South 454 522 39,000  Level FlightAware ADS-B
Wed 06:38:21 PM 33.2805 -84.2938 163° South 449 517 39,000  Level FlightAware ADS-B
Wed 06:39:06 PM 33.1910 -84.2730 169° South 445 512 39,000  Level FlightAware ADS-B
Wed 06:39:42 PM 33.1200 -84.2570 169° South 445 512 39,000  Level FlightAware ADS-B
Wed 06:40:14 PM 33.0560 -84.2430 170° South 444 511 39,000  Level FlightAware ADS-B
Wed 06:40:50 PM 32.9820 -84.2260 169° South 443 510 39,000  Level FlightAware ADS-B
Wed 06:41:22 PM 32.9160 -84.2130 171° South 443 510 39,000  Level FlightAware ADS-B
Wed 06:42:02 PM 32.8350 -84.1950 169° South 443 510 39,000  Level FlightAware ADS-B
Wed 06:42:35 PM 32.7700 -84.1810 170° South 441 507 39,000  Level FlightAware ADS-B
Wed 06:43:10 PM 32.6980 -84.1660 170° South 441 507 39,000  Level FlightAware ADS-B
Wed 06:43:40 PM 32.6380 -84.1540 170° South 441 507 39,000  Level FlightAware ADS-B
Wed 06:44:21 PM 32.5570 -84.1370 170° South 441 507 39,000  Level FlightAware ADS-B
Wed 06:44:58 PM 32.4840 -84.1230 171° South 446 513 39,000  Level FlightAware ADS-B
Wed 06:45:30 PM 32.4130 -84.1100 171° South 449 517 39,000  Level FlightAware ADS-B
Wed 06:46:06 PM 32.3420 -84.0990 173° South 446 513 39,000  Level FlightAware ADS-B
Wed 06:46:40 PM 32.2720 -84.0900 174° South 447 514 39,000  Level FlightAware ADS-B
Wed 06:47:16 PM 32.1960 -84.0810 174° South 450 518 39,000  Level FlightAware ADS-B
Wed 06:47:53 PM 32.1300 -84.0730 174° South 452 520 39,000  Level FlightAware ADS-B
Wed 06:48:29 PM 32.0660 -84.0650 174° South 452 520 39,000  Level FlightAware ADS-B
Wed 06:49:05 PM 32.0020 -84.0580 175° South 452 520 39,000  Level FlightAware ADS-B
Wed 06:49:42 PM 31.9370 -84.0490 173° South 452 520 39,000  Level FlightAware ADS-B
Wed 06:50:18 PM 31.8730 -84.0420 175° South 452 520 39,000  Level FlightAware ADS-B
Wed 06:50:54 PM 31.8100 -84.0340 174° South 452 520 39,000  Level FlightAware ADS-B
Wed 06:51:30 PM 31.7460 -84.0260 174° South 452 520 39,000  Level FlightAware ADS-B
Wed 06:52:06 PM 31.6820 -84.0180 174° South 452 520 39,000  Level FlightAware ADS-B
Wed 06:52:46 PM 31.5090 -83.9330 157° South 466 536 39,000  Level FlightAware ADS-B
Wed 06:53:23 PM 31.4440 -83.9100 163° South 466 536 39,000  Level FlightAware ADS-B
Wed 06:53:59 PM 31.3810 -83.8870 163° South 466 536 39,000  Level FlightAware ADS-B
Wed 06:54:35 PM 31.3180 -83.8640 163° South 466 536 39,000  Level FlightAware ADS-B
Wed 06:55:11 PM 31.2550 -83.8420 163° South 466 536 39,000  Level FlightAware ADS-B
Wed 06:55:47 PM 31.1910 -83.8190 163° South 466 536 39,000  Level FlightAware ADS-B
Wed 06:56:25 PM 31.1250 -83.7960 163° South 466 536 39,000  Level FlightAware ADS-B
Wed 06:57:01 PM 31.0620 -83.7730 163° South 466 536 39,000  Level FlightAware ADS-B
Wed 06:57:37 PM 30.9990 -83.7510 163° South 466 536 39,000  Level FlightAware ADS-B
Wed 06:58:23 PM 30.9180 -83.7220 163° South 466 536 39,000  Level FlightAware ADS-B
Wed 06:59:11 PM 30.7240 -83.6630 165° South 452 520 39,000  Level FlightAware ADS-B
Wed 06:59:46 PM 30.6610 -83.6410 163° South 452 520 39,000  Level FlightAware ADS-B
Wed 07:00:21 PM 30.5830 -83.6150 164° South 452 520 39,000  Level FlightAware ADS-B
Wed 07:00:51 PM 30.5200 -83.5940 164° South 453 521 39,000  Level FlightAware ADS-B
Wed 07:01:31 PM 30.4390 -83.5660 163° South 453 521 39,000  Level FlightAware ADS-B
Wed 07:02:01 PM 30.3750 -83.5440 163° South 454 522 39,000  Level FlightAware ADS-B
Wed 07:02:36 PM 30.3070 -83.5210 164° South 455 524 39,000  Level FlightAware ADS-B
Wed 07:03:16 PM 30.2230 -83.4920 163° South 455 524 39,000  Level FlightAware ADS-B
Wed 07:03:46 PM 30.1610 -83.4720 164° South 455 524 39,000  Level FlightAware ADS-B
Wed 07:04:26 PM 30.0790 -83.4440 164° South 453 521 39,000  Level FlightAware ADS-B
Wed 07:05:06 PM 29.9960 -83.4160 164° South 454 522 39,000  Level FlightAware ADS-B
Wed 07:05:41 PM 29.9250 -83.3920 164° South 455 524 39,000  Level FlightAware ADS-B
Wed 07:06:16 PM 29.8520 -83.3680 164° South 454 522 39,000  Level FlightAware ADS-B
Wed 07:06:51 PM 29.7810 -83.3440 164° South 452 520 39,000  Level FlightAware ADS-B
Wed 07:07:26 PM 29.7090 -83.3200 164° South 452 520 39,000  Level FlightAware ADS-B
Wed 07:08:01 PM 29.6380 -83.2960 164° South 452 520 39,000  Level FlightAware ADS-B
Wed 07:08:36 PM 29.5650 -83.2720 164° South 453 521 39,000  Level FlightAware ADS-B
Wed 07:09:11 PM 29.4940 -83.2480 164° South 455 524 39,000  Level FlightAware ADS-B
Wed 07:09:46 PM 29.4210 -83.2240 164° South 455 524 39,000  Level FlightAware ADS-B
Wed 07:10:21 PM 29.3490 -83.2000 164° South 455 524 39,000  Level FlightAware ADS-B
Wed 07:10:56 PM 29.2750 -83.1750 164° South 455 524 39,000  Level FlightAware ADS-B
Wed 07:11:31 PM 29.2050 -83.1520 164° South 454 522 39,000  Level FlightAware ADS-B
Wed 07:12:07 PM 29.1330 -83.1280 164° South 454 522 39,000  Level FlightAware ADS-B
Wed 07:12:41 PM 29.0590 -83.1040 164° South 452 520 39,000  Level FlightAware ADS-B
Wed 07:13:16 PM 28.9900 -83.0810 164° South 452 520 39,000  Level FlightAware ADS-B
Wed 07:13:46 PM 28.9280 -83.0610 164° South 451 519 39,000  Level FlightAware ADS-B
Wed 07:14:26 PM 28.8470 -83.0340 164° South 451 519 39,000  Level FlightAware ADS-B
Wed 07:15:01 PM 28.7740 -83.0100 164° South 452 520 39,000  Level FlightAware ADS-B
Wed 07:15:36 PM 28.7040 -82.9870 164° South 452 520 39,000  Level FlightAware ADS-B
Wed 07:16:11 PM 28.6320 -82.9630 164° South 450 518 39,000  Level FlightAware ADS-B
Wed 07:16:46 PM 28.5630 -82.9410 164° South 456 525 39,000  Level FlightAware ADS-B
Wed 07:17:21 PM 28.4900 -82.9170 164° South 454 522 39,000  Level FlightAware ADS-B
Wed 07:17:56 PM 28.4190 -82.8940 164° South 452 520 39,000  Level FlightAware ADS-B
Wed 07:18:31 PM 28.3480 -82.8710 164° South 450 518 39,000  Level FlightAware ADS-B
Wed 07:19:06 PM 28.2800 -82.8490 164° South 449 517 39,000  Level FlightAware ADS-B
Wed 07:19:41 PM 28.2080 -82.8250 164° South 448 516 39,000  Level FlightAware ADS-B
Wed 07:20:16 PM 28.1390 -82.8030 164° South 437 503 39,000  Level FlightAware ADS-B
Wed 07:20:51 PM 28.0700 -82.7800 164° South 435 501 39,000  Level FlightAware ADS-B
Wed 07:21:26 PM 28.0020 -82.7590 165° South 433 498 39,000  Level FlightAware ADS-B
Wed 07:22:01 PM 27.9330 -82.7350 163° South 441 507 39,000  Level FlightAware ADS-B
Wed 07:22:37 PM 27.8650 -82.7100 162° South 444 511 39,000  Level FlightAware ADS-B
Wed 07:23:11 PM 27.7980 -82.6850 162° South 441 507 39,000  Level FlightAware ADS-B
Wed 07:23:46 PM 27.7280 -82.6580 161° South 441 507 39,000  Level FlightAware ADS-B
Wed 07:24:21 PM 27.6610 -82.6330 162° South 440 506 39,000  Level FlightAware ADS-B
Wed 07:24:56 PM 27.5910 -82.6070 162° South 438 504 39,000 -429 Level FlightAware ADS-B
Wed 07:25:31 PM 27.5260 -82.5830 162° South 427 491 38,500 -943 Descending FlightAware ADS-B
Wed 07:26:06 PM 27.4600 -82.5580 161° South 424 488 37,900 -943 Descending FlightAware ADS-B
Wed 07:26:41 PM 27.4000 -82.5360 162° South 425 489 37,400 -730 Descending FlightAware ADS-B
Wed 07:27:20 PM 27.3170 -82.5050 162° South 435 501 37,000 -845 Descending FlightAware ADS-B
Wed 07:27:52 PM 27.2550 -82.4810 161° South 433 498 36,400 -1,000 Descending FlightAware ADS-B
Wed 07:28:26 PM 27.1930 -82.4590 162° South 435 501 35,900 -913 Descending FlightAware ADS-B
Wed 07:28:38 PM 27.1690 -82.4460 154° Southeast 444 511 35,700 -938 Descending FlightAware ADS-B
Wed 07:28:58 PM 27.1330 -82.4190 146° Southeast 459 528 35,400 -889 Descending FlightAware ADS-B
Wed 07:29:32 PM 27.0830 -82.3610 134° Southeast 466 536 34,900 -640 Descending FlightAware ADS-B
Wed 07:30:13 PM 27.0280 -82.2950 133° Southeast 468 539 34,600 -966 Descending FlightAware ADS-B
Wed 07:30:59 PM 26.9580 -82.2130 134° Southeast 471 542 33,500 -1,200 Descending FlightAware ADS-B
Wed 07:31:58 PM 26.8640 -82.1020 133° Southeast 480 552 32,500 -966 Descending FlightAware ADS-B
Wed 07:32:26 PM 26.8220 -82.0520 133° Southeast 481 554 32,100 -930 Descending FlightAware ADS-B
Wed 07:33:09 PM 26.7570 -81.9760 134° Southeast 477 549 31,400 -986 Descending FlightAware ADS-B
Wed 07:33:39 PM 26.7090 -81.9200 134° Southeast 478 550 30,900 -923 Descending FlightAware ADS-B
Wed 07:34:14 PM 26.6570 -81.8580 133° Southeast 476 548 30,400 -1,622 Descending FlightAware ADS-B
Wed 07:34:53 PM 26.5960 -81.7870 134° Southeast 470 541 28,900 -2,320 Descending FlightAware ADS-B
Wed 07:35:29 PM 26.5440 -81.7260 134° Southeast 456 525 27,500 -2,455 Descending FlightAware ADS-B
Wed 07:35:59 PM 26.4990 -81.6730 133° Southeast 447 514 26,200 -2,400 Descending FlightAware ADS-B
Wed 07:36:34 PM 26.4510 -81.6160 133° Southeast 423 487 24,900 -2,160 Descending FlightAware ADS-B
Wed 07:37:14 PM 26.4020 -81.5490 129° Southeast 412 474 23,500 -2,143 Descending FlightAware ADS-B
Wed 07:37:44 PM 26.3720 -81.4970 123° Southeast 404 465 22,400 -2,182 Descending FlightAware ADS-B
Wed 07:38:20 PM 26.3360 -81.4340 123° Southeast 401 461 21,100 -2,435 Descending FlightAware ADS-B
Wed 07:38:53 PM 26.3010 -81.3730 123° Southeast 403 464 19,600 -2,514 Descending FlightAware ADS-B
Wed 07:39:34 PM 26.2620 -81.3010 121° Southeast 395 455 18,000 -2,296 Descending FlightAware ADS-B
Wed 07:40:14 PM 26.2250 -81.2320 121° Southeast 386 444 16,500 -2,320 Descending FlightAware ADS-B
Wed 07:40:49 PM 26.1920 -81.1730 122° Southeast 381 438 15,100 -2,229 Descending FlightAware ADS-B
Wed 07:41:24 PM 26.1440 -81.1330 143° Southeast 363 418 13,900 -2,087 Descending FlightAware ADS-B
Wed 07:41:58 PM 26.0920 -81.1000 150° Southeast 359 413 12,700 -2,143 Descending FlightAware ADS-B
Wed 07:42:34 PM 26.0430 -81.0670 149° Southeast 354 407 11,400 -1,944 Descending FlightAware ADS-B
Wed 07:43:09 PM 25.9930 -81.0340 149° Southeast 341 392 10,400 -1,313 Descending FlightAware ADS-B
Wed 07:43:38 PM 25.9610 -81.0020 138° Southeast 315 362 10,000 -600 Descending FlightAware ADS-B
Wed 07:43:59 PM 25.9480 -80.9720 116° Southeast 300 345 9,900 -146 Descending FlightAware ADS-B
Wed 07:44:19 PM 25.9370 -80.9430 113° Southeast 289 333 9,900  Level FlightAware ADS-B
Wed 07:44:38 PM 25.9270 -80.9180 114° Southeast 290 334 9,900 -900 Level FlightAware ADS-B
Wed 07:44:59 PM 25.9150 -80.8900 115° Southeast 290 334 9,300 -1,565 Descending FlightAware ADS-B
Wed 07:45:24 PM 25.9020 -80.8550 112° Southeast 290 334 8,700 -1,467 Descending FlightAware ADS-B
Wed 07:45:44 PM 25.8930 -80.8270 110° East 285 328 8,200 -1,385 Descending FlightAware ADS-B
Wed 07:46:03 PM 25.8840 -80.8000 110° East 281 323 7,800 -1,171 Descending FlightAware ADS-B
Wed 07:46:25 PM 25.8760 -80.7730 108° East 280 322 7,400 -1,317 Descending FlightAware ADS-B
Wed 07:46:44 PM 25.8670 -80.7450 110° East 276 318 6,900 -1,375 Descending FlightAware ADS-B
Wed 07:47:13 PM 25.8540 -80.7060 110° East 273 314 6,300 -960 Descending FlightAware ADS-B
Wed 07:47:34 PM 25.8450 -80.6790 110° East 260 299 6,100 -419 Descending FlightAware ADS-B
Wed 07:47:56 PM 25.8370 -80.6540 110° East 248 285 6,000 -514 Descending FlightAware ADS-B
Wed 07:48:09 PM 25.8320 -80.6360 107° East 234 269 5,800 -1,091 Descending FlightAware ADS-B
Wed 07:48:29 PM 25.8250 -80.6160 111° Southeast 223 257 5,400 -1,350 Descending FlightAware ADS-B
Wed 07:48:49 PM 25.8180 -80.5930 109° East 220 253 4,900 -1,600 Descending FlightAware ADS-B
Wed 07:49:14 PM 25.8090 -80.5660 110° East 220 253 4,200 -1,500 Descending FlightAware ADS-B
Wed 07:49:33 PM 25.8020 -80.5450 110° East 215 247 3,800 -900 Descending FlightAware ADS-B
Wed 07:49:54 PM 25.7950 -80.5250 111° Southeast 202 232 3,600 -585 Descending FlightAware ADS-B
Wed 07:50:14 PM 25.7890 -80.5060 109° East 192 221 3,400 -818 Descending FlightAware ADS-B
Wed 07:50:38 PM 25.7820 -80.4840 109° East 183 211 3,000 -1,050 Descending FlightAware ADS-B
Wed 07:50:54 PM 25.7800 -80.4700 99° East 191 220 2,700 -1,167 Descending FlightAware ADS-B
Wed 07:51:14 PM 25.7800 -80.4500 90° East 188 216 2,300 -1,067 Descending FlightAware ADS-B
Wed 07:51:39 PM 25.7810 -80.4260 87° East 183 211 1,900 -933 Descending FlightAware ADS-B
Wed 07:51:59 PM 25.7820 -80.4080 86° East 181 208 1,600 -933 Descending FlightAware ADS-B
Wed 07:52:24 PM 25.7830 -80.3850 87° East 168 193 1,200 -831 Descending FlightAware ADS-B
Wed 07:53:04 PM 25.7840 -80.3540 88° East 145 167 700 -787 Descending FlightAware ADS-B
Wed 07:53:25 PM 25.7850 -80.3390 86° East 146 168 400 -367 Descending FlightAware ADS-B
Wed 07:53:53 PM 25.7850 -80.3210 90° East 146 168 400 -300 Level FlightAware ADS-B
Wed 07:54:25 PM 25.7860 -80.2990 87° East 144 166 100 -563 Descending FlightAware ADS-B

Login

Don't have an account? Register now (free) for customized features, flight alerts, and more!